Time;durP1;ratioP1;P1;durP2;ratioP2;P2;SDS_P1;SDS_P2;PMS_P1;PMS_P2;Temp;Humidity;BMP_temperature;BMP_pressure;BME280_temperature;BME280_humidity;BME280_pressure;Samples;Min_cycle;Max_cycle;Signal;HPM_P1;HPM_P2
2023/01/16 00:02:24;;;;;;;1.60;1.27;;;;;;;3.69;81.40;97236.41;5069560;28;20029;-81
2023/01/16 00:04:50;;;;;;;7.63;1.73;;;;;;;3.44;81.86;97226.31;5074853;28;20039;-81
2023/01/16 00:07:15;;;;;;;2.63;1.67;;;;;;;3.77;81.72;97239.44;5050207;28;20036;-81
2023/01/16 00:09:40;;;;;;;4.15;1.20;;;;;;;3.77;81.58;97228.06;5057516;28;20039;-81
2023/01/16 00:12:06;;;;;;;3.88;1.60;;;;;;;3.66;81.80;97223.69;5047303;28;20032;-81
2023/01/16 00:14:31;;;;;;;2.10;0.98;;;;;;;3.69;82.14;97229.28;5066666;28;20173;-81
2023/01/16 00:16:56;;;;;;;7.90;1.75;;;;;;;3.83;81.33;97215.72;5078332;28;20043;-81
2023/01/16 00:19:22;;;;;;;4.18;1.20;;;;;;;3.74;82.15;97195.06;5058864;28;20028;-81
2023/01/16 00:21:47;;;;;;;5.53;1.52;;;;;;;3.69;82.15;97194.19;5063309;28;20427;-81
2023/01/16 00:24:13;;;;;;;2.83;1.30;;;;;;;3.59;81.98;97200.13;5049228;28;20507;-81
2023/01/16 00:26:38;;;;;;;2.78;1.23;;;;;;;3.69;81.85;97186.28;5060228;28;20131;-80
2023/01/16 00:29:04;;;;;;;4.97;1.35;;;;;;;3.79;81.75;97195.13;5035825;28;20028;-81
2023/01/16 00:31:29;;;;;;;2.60;1.55;;;;;;;3.81;81.29;97184.31;5029302;28;20025;-80
2023/01/16 00:33:55;;;;;;;3.13;1.20;;;;;;;3.78;81.08;97184.78;5047008;28;20055;-80
2023/01/16 00:36:20;;;;;;;5.30;1.40;;;;;;;3.73;81.46;97167.06;5045568;28;20110;-81
2023/01/16 00:38:46;;;;;;;3.22;1.30;;;;;;;3.50;81.92;97143.56;5047204;28;20118;-81
2023/01/16 00:41:11;;;;;;;7.28;2.33;;;;;;;3.85;81.79;97164.31;5062643;28;20025;-81
2023/01/16 00:43:37;;;;;;;3.70;1.67;;;;;;;3.59;80.77;97146.56;5065301;28;20026;-81
2023/01/16 00:46:02;;;;;;;5.80;1.20;;;;;;;3.73;81.50;97145.19;5034245;28;20040;-81
2023/01/16 00:48:27;;;;;;;5.72;1.63;;;;;;;3.65;81.42;97133.22;5030721;28;20037;-81
2023/01/16 00:50:53;;;;;;;2.85;0.95;;;;;;;3.88;81.41;97145.34;5045971;28;20027;-81
2023/01/16 00:53:18;;;;;;;2.10;1.27;;;;;;;3.85;80.70;97147.66;5064783;28;20173;-81
2023/01/16 00:55:44;;;;;;;4.97;1.00;;;;;;;3.77;81.01;97135.72;5059966;28;20374;-81
2023/01/16 00:58:10;;;;;;;2.47;1.00;;;;;;;3.87;81.24;97138.47;5033392;28;20032;-80
2023/01/16 01:00:37;;;;;;;5.90;1.48;;;;;;;3.80;80.78;97140.50;5055850;28;20024;-80
2023/01/16 01:03:03;;;;;;;5.57;1.58;;;;;;;3.81;80.82;97144.72;5060478;28;20051;-80
2023/01/16 01:05:29;;;;;;;3.38;1.17;;;;;;;3.65;80.92;97132.41;5058046;28;20025;-80
2023/01/16 01:07:54;;;;;;;1.50;1.20;;;;;;;3.68;81.56;97134.56;5057178;28;20036;-81
2023/01/16 01:10:20;;;;;;;4.75;1.38;;;;;;;3.85;80.99;97137.91;5038629;28;20032;-81
2023/01/16 01:12:45;;;;;;;4.60;1.35;;;;;;;3.80;80.97;97124.66;5053046;28;20041;-81
2023/01/16 01:15:10;;;;;;;2.85;1.35;;;;;;;3.87;81.14;97127.91;5029600;28;20107;-81
2023/01/16 01:17:36;;;;;;;3.50;1.30;;;;;;;3.93;80.92;97128.78;5056900;28;20039;-81
2023/01/16 01:20:02;;;;;;;4.72;1.33;;;;;;;3.82;80.82;97117.31;5038857;28;20029;-80
2023/01/16 01:22:27;;;;;;;5.55;2.00;;;;;;;3.71;81.42;97119.03;5066897;28;20031;-80
2023/01/16 01:24:52;;;;;;;7.07;1.73;;;;;;;3.88;80.94;97121.59;5044646;28;20040;-81
2023/01/16 01:27:18;;;;;;;1.88;1.00;;;;;;;3.72;80.64;97115.34;5044659;28;20045;-81
2023/01/16 01:29:44;;;;;;;4.45;1.30;;;;;;;3.81;80.63;97113.06;5060655;28;20021;-81
2023/01/16 01:32:10;;;;;;;5.40;1.77;;;;;;;3.90;80.88;97098.41;5045455;28;20039;-81
2023/01/16 01:34:35;;;;;;;4.30;1.63;;;;;;;3.90;80.94;97100.22;5066838;28;20040;-81
2023/01/16 01:37:06;;;;;;;5.03;1.63;;;;;;;3.88;80.65;97099.69;5047602;28;20481;-80
2023/01/16 01:39:32;;;;;;;5.53;1.35;;;;;;;3.79;81.19;97092.22;5047878;28;20198;-80
2023/01/16 01:44:48;;;;;;;10.05;1.67;;;;;;;3.93;81.51;97090.00;5049278;28;20082;-80
2023/01/16 01:47:14;;;;;;;4.72;1.52;;;;;;;3.93;80.73;97084.72;5055897;28;20032;-80
2023/01/16 01:49:40;;;;;;;6.28;1.52;;;;;;;3.81;81.42;97073.50;5072359;28;20033;-80
2023/01/16 01:52:07;;;;;;;4.82;1.40;;;;;;;3.77;81.62;97075.03;5040825;28;20504;-80
2023/01/16 01:54:37;;;;;;;3.33;1.45;;;;;;;3.82;81.54;97061.09;5064956;28;20032;-80
2023/01/16 01:57:35;;;;;;;3.40;1.05;;;;;;;3.75;81.83;97048.09;5052255;28;20123;-80
2023/01/16 02:00:06;;;;;;;3.15;1.45;;;;;;;3.88;81.22;97057.47;5031622;28;20765;-80
2023/01/16 02:02:37;;;;;;;1.85;1.15;;;;;;;3.78;82.20;97048.41;5049572;28;20320;-80
2023/01/16 02:05:09;;;;;;;4.13;1.13;;;;;;;3.87;81.36;97051.38;5040420;28;20395;-80
2023/01/16 02:07:35;;;;;;;4.60;1.50;;;;;;;3.89;81.92;97041.38;5044093;28;20393;-79
2023/01/16 02:10:19;;;;;;;4.40;1.42;;;;;;;3.67;82.12;97040.63;5033564;28;20505;-79
2023/01/16 02:12:45;;;;;;;2.33;1.42;;;;;;;3.89;81.29;97024.75;5046496;28;20496;-80
2023/01/16 02:15:11;;;;;;;6.80;2.80;;;;;;;3.85;82.05;97026.28;5058322;28;20029;-80
2023/01/16 02:21:23;;;;;;;1.67;1.02;;;;;;;3.68;82.73;97019.28;4985800;28;20624;-80
2023/01/16 02:24:26;;;;;;;6.85;1.25;;;;;;;3.93;81.69;97013.47;5042657;28;20137;-79
2023/01/16 02:27:06;;;;;;;5.15;1.35;;;;;;;3.87;81.37;96993.31;5054386;28;20476;-80
2023/01/16 02:29:49;;;;;;;1.33;0.90;;;;;;;3.84;81.85;97004.41;5059770;28;20054;-80
2023/01/16 02:32:32;;;;;;;1.77;1.40;;;;;;;3.78;81.85;97000.91;5061320;28;20021;-80
2023/01/16 02:35:33;;;;;;;1.50;1.23;;;;;;;3.78;81.87;97005.38;5062505;28;20511;-79
2023/01/16 02:38:14;;;;;;;5.35;1.30;;;;;;;3.85;81.93;96989.34;5059415;28;20117;-80
2023/01/16 02:40:48;;;;;;;2.78;2.10;;;;;;;3.93;81.45;96983.63;5064761;28;20523;-80
2023/01/16 02:43:30;;;;;;;3.78;1.85;;;;;;;3.79;82.11;96981.41;5043351;28;20028;-80
2023/01/16 02:46:27;;;;;;;4.25;1.70;;;;;;;3.78;82.42;96969.25;5066954;28;20111;-80
2023/01/16 02:48:55;;;;;;;3.35;2.25;;;;;;;3.76;82.35;96975.81;5028279;28;20032;-80
2023/01/16 02:51:36;;;;;;;3.20;1.27;;;;;;;3.99;81.87;96967.59;5045254;28;20035;-80
2023/01/16 02:54:21;;;;;;;2.33;1.23;;;;;;;3.88;82.69;96951.91;5079436;28;20052;-80
2023/01/16 02:56:51;;;;;;;8.00;1.23;;;;;;;3.86;82.37;96960.09;5044897;28;20469;-80
2023/01/16 02:59:18;;;;;;;4.60;1.55;;;;;;;3.94;81.96;96953.53;5063375;28;20136;-80
2023/01/16 03:01:49;;;;;;;4.00;1.42;;;;;;;3.77;83.24;96943.94;5039747;28;20033;-80
2023/01/16 03:04:36;;;;;;;7.95;2.45;;;;;;;3.92;82.91;96931.88;5057955;28;20033;-80
2023/01/16 03:07:20;;;;;;;4.07;1.38;;;;;;;3.91;82.66;96920.53;5063011;28;20025;-80
2023/01/16 03:10:13;;;;;;;2.47;1.10;;;;;;;4.02;82.74;96914.28;5058048;28;20024;-80
2023/01/16 03:12:44;;;;;;;4.78;1.45;;;;;;;3.94;82.25;96914.75;5060460;28;20481;-80
2023/01/16 03:15:17;;;;;;;6.50;1.50;;;;;;;3.87;82.82;96903.63;5041977;28;20143;-80
2023/01/16 03:17:52;;;;;;;1.60;1.08;;;;;;;3.97;82.81;96902.91;5025319;28;20504;-80
2023/01/16 03:20:17;;;;;;;6.07;1.30;;;;;;;3.76;83.39;96907.22;5042244;28;20029;-80
2023/01/16 03:22:55;;;;;;;3.17;1.90;;;;;;;3.85;83.40;96884.59;5036710;28;20084;-80
2023/01/16 03:25:32;;;;;;;8.07;1.70;;;;;;;4.04;82.89;96893.69;5040661;28;20124;-80
2023/01/16 03:28:14;;;;;;;4.40;1.55;;;;;;;4.05;82.75;96899.78;5061429;28;20495;-80
2023/01/16 03:30:48;;;;;;;8.52;2.35;;;;;;;3.91;82.91;96883.56;5055071;28;20934;-80
2023/01/16 03:33:44;;;;;;;5.53;1.30;;;;;;;4.03;82.98;96888.69;5039482;28;20029;-80
2023/01/16 03:36:23;;;;;;;3.00;1.42;;;;;;;3.68;83.64;96879.47;5047725;28;20043;-80
2023/01/16 03:38:51;;;;;;;3.45;1.65;;;;;;;3.64;84.66;96874.97;5042656;28;20042;-80
2023/01/16 03:41:22;;;;;;;5.93;1.38;;;;;;;3.87;84.05;96864.03;5059829;28;20806;-80
2023/01/16 03:43:51;;;;;;;2.60;1.60;;;;;;;3.84;83.48;96846.09;5036710;28;20060;-80
2023/01/16 03:46:28;;;;;;;4.28;1.77;;;;;;;3.98;82.91;96836.66;5016922;28;20031;-80
2023/01/16 03:49:09;;;;;;;6.05;2.35;;;;;;;3.81;83.86;96846.59;5058144;28;20391;-80
2023/01/16 03:52:00;;;;;;;2.53;1.48;;;;;;;3.89;83.36;96840.06;5043818;28;20029;-80
2023/01/16 03:54:47;;;;;;;2.38;1.40;;;;;;;3.82;84.08;96840.28;5055724;28;20392;-80
2023/01/16 03:57:24;;;;;;;3.42;1.33;;;;;;;3.99;83.06;96838.25;5052582;28;20480;-80
2023/01/16 03:59:52;;;;;;;3.20;1.35;;;;;;;3.91;83.34;96817.59;5059260;28;20028;-80
2023/01/16 04:02:27;;;;;;;4.63;1.45;;;;;;;3.91;83.26;96825.53;5063003;28;20433;-80
2023/01/16 04:05:02;;;;;;;3.50;2.10;;;;;;;3.75;83.75;96811.47;5048408;28;20030;-80
2023/01/16 04:07:43;;;;;;;2.33;1.42;;;;;;;4.00;83.41;96823.22;5071150;28;20033;-80
2023/01/16 04:10:20;;;;;;;1.80;1.13;;;;;;;3.89;83.96;96825.00;5045485;28;20114;-80
2023/01/16 04:12:50;;;;;;;3.63;1.25;;;;;;;4.05;83.56;96831.94;5048239;28;20025;-80
2023/01/16 04:15:18;;;;;;;6.35;2.10;;;;;;;4.11;82.94;96816.91;5068329;28;20450;-81
2023/01/16 04:17:43;;;;;;;2.78;1.27;;;;;;;3.94;83.57;96819.75;5053140;28;20078;-81
2023/01/16 04:20:10;;;;;;;11.55;3.20;;;;;;;3.92;84.11;96811.28;5066774;28;20028;-81
2023/01/16 04:22:35;;;;;;;4.93;2.13;;;;;;;3.74;84.73;96794.03;5062836;28;20028;-81
2023/01/16 04:25:06;;;;;;;4.03;1.58;;;;;;;3.92;84.15;96789.38;5051800;28;20557;-81
2023/01/16 04:27:31;;;;;;;8.80;1.45;;;;;;;4.06;83.80;96801.88;5079769;28;20111;-81
2023/01/16 04:29:56;;;;;;;4.28;1.58;;;;;;;3.73;85.56;96791.66;5049838;28;20552;-81
2023/01/16 04:32:22;;;;;;;3.25;1.20;;;;;;;3.98;84.49;96789.16;5020493;28;20468;-81
2023/01/16 04:34:47;;;;;;;2.67;1.63;;;;;;;3.97;84.49;96786.78;5045561;28;20040;-81
2023/01/16 04:37:16;;;;;;;1.95;1.58;;;;;;;3.98;84.58;96783.06;5046544;28;20029;-80
2023/01/16 04:39:41;;;;;;;7.45;2.33;;;;;;;3.83;85.43;96770.59;5062367;28;20082;-80
2023/01/16 04:42:07;;;;;;;5.60;1.60;;;;;;;3.68;85.21;96758.13;5037846;28;20031;-80
2023/01/16 04:44:33;;;;;;;5.40;1.55;;;;;;;3.72;85.82;96753.13;5040467;28;20081;-80
2023/01/16 04:46:58;;;;;;;4.38;1.70;;;;;;;3.84;85.36;96761.66;5060378;28;20029;-80
2023/01/16 04:49:24;;;;;;;3.15;1.75;;;;;;;3.81;84.91;96743.69;5042880;28;20033;-80
2023/01/16 04:51:49;;;;;;;2.78;1.60;;;;;;;3.88;84.88;96740.81;5043413;28;20381;-80
2023/01/16 04:54:17;;;;;;;3.92;1.75;;;;;;;4.11;84.42;96751.72;5065995;28;20039;-80
2023/01/16 04:56:42;;;;;;;1.02;1.02;;;;;;;3.91;85.45;96751.63;5052364;28;20107;-80
2023/01/16 04:59:09;;;;;;;2.70;1.45;;;;;;;3.88;85.60;96736.34;5060695;28;20119;-80
2023/01/16 05:01:36;;;;;;;1.65;1.30;;;;;;;3.96;84.98;96730.56;5067183;28;20032;-81
2023/01/16 05:04:02;;;;;;;4.28;2.22;;;;;;;3.84;85.31;96711.53;5050835;28;20029;-81
2023/01/16 05:06:27;;;;;;;4.57;1.80;;;;;;;3.90;85.67;96733.44;5049508;28;20044;-81
2023/01/16 05:08:52;;;;;;;3.33;1.40;;;;;;;3.81;85.58;96714.66;5052906;28;20111;-81
2023/01/16 05:11:18;;;;;;;2.72;1.92;;;;;;;4.11;84.48;96720.06;5031652;28;20062;-80
2023/01/16 05:13:44;;;;;;;3.83;1.52;;;;;;;4.00;84.53;96715.03;5048987;28;20027;-80
2023/01/16 05:16:09;;;;;;;6.03;2.30;;;;;;;3.96;85.29;96712.09;5062246;28;20035;-80
2023/01/16 05:18:34;;;;;;;6.82;1.77;;;;;;;3.63;85.44;96702.72;5069797;28;20032;-80
2023/01/16 05:21:01;;;;;;;4.00;1.58;;;;;;;3.90;85.21;96707.84;5047431;28;20021;-80
2023/01/16 05:23:26;;;;;;;5.40;1.65;;;;;;;3.88;85.02;96707.31;5065993;28;20498;-80
2023/01/16 05:25:53;;;;;;;9.35;1.95;;;;;;;3.70;86.27;96702.47;5074650;28;20033;-80
2023/01/16 05:28:19;;;;;;;3.78;1.83;;;;;;;3.77;85.28;96705.69;5044814;28;20102;-80
2023/01/16 05:30:46;;;;;;;4.57;1.40;;;;;;;3.91;85.26;96693.59;5047904;28;20036;-80
2023/01/16 05:33:12;;;;;;;3.63;1.48;;;;;;;3.71;86.36;96691.66;5045257;28;20044;-80
2023/01/16 05:35:37;;;;;;;2.05;1.70;;;;;;;3.82;85.65;96681.97;5048350;28;20037;-80
2023/01/16 05:38:02;;;;;;;1.98;1.38;;;;;;;3.99;85.50;96677.28;5048866;28;20500;-81
2023/01/16 05:40:28;;;;;;;8.15;1.90;;;;;;;3.69;86.05;96669.25;5062127;28;20045;-80
2023/01/16 05:42:53;;;;;;;6.13;2.00;;;;;;;3.67;86.63;96658.13;5063998;28;20111;-80
2023/01/16 05:45:18;;;;;;;7.15;1.60;;;;;;;3.95;85.69;96655.09;5032981;28;20040;-81
2023/01/16 05:47:44;;;;;;;9.13;1.80;;;;;;;3.94;85.44;96635.03;5043773;28;20067;-81
2023/01/16 05:50:09;;;;;;;8.18;1.10;;;;;;;3.86;85.69;96640.03;5064887;28;20057;-81
2023/01/16 05:52:35;;;;;;;3.63;1.80;;;;;;;3.62;86.82;96648.38;5052951;28;20043;-80
2023/01/16 05:55:00;;;;;;;2.67;1.90;;;;;;;3.81;85.63;96632.88;5044743;28;20039;-80
2023/01/16 05:57:25;;;;;;;4.68;1.65;;;;;;;3.89;85.49;96634.22;5051424;28;20032;-80
2023/01/16 05:59:51;;;;;;;6.13;1.92;;;;;;;3.79;85.73;96627.06;5037267;28;20037;-80
2023/01/16 06:02:17;;;;;;;3.17;1.90;;;;;;;3.79;84.72;96622.59;5038625;28;20025;-80
2023/01/16 06:04:43;;;;;;;4.50;2.03;;;;;;;3.75;86.03;96618.09;5042834;28;20116;-80
2023/01/16 06:07:08;;;;;;;5.10;1.83;;;;;;;3.86;85.25;96627.63;5043668;28;20140;-81
2023/01/16 06:09:34;;;;;;;5.78;1.83;;;;;;;3.74;85.39;96614.66;5044292;28;20024;-80
2023/01/16 06:11:59;;;;;;;4.97;1.90;;;;;;;3.81;85.39;96603.84;5051959;28;20032;-80
2023/01/16 06:14:24;;;;;;;2.90;1.50;;;;;;;3.81;85.49;96606.50;5054657;28;20560;-80
2023/01/16 06:16:50;;;;;;;5.63;1.83;;;;;;;3.67;85.09;96602.75;5065657;28;20028;-81
2023/01/16 06:19:15;;;;;;;6.70;2.00;;;;;;;3.95;84.51;96604.16;5015997;28;20028;-80
2023/01/16 06:21:40;;;;;;;4.32;1.90;;;;;;;4.00;84.45;96596.25;5060896;28;20435;-81
2023/01/16 06:24:06;;;;;;;3.70;1.63;;;;;;;3.85;84.97;96596.19;5054837;28;20032;-80
2023/01/16 06:26:31;;;;;;;6.00;2.00;;;;;;;3.64;85.03;96579.53;5035631;28;20067;-81
2023/01/16 06:28:57;;;;;;;7.30;1.83;;;;;;;3.85;84.92;96583.81;5047618;28;20044;-80
2023/01/16 06:31:23;;;;;;;2.67;1.55;;;;;;;3.87;84.02;96578.28;5034579;28;20056;-80
2023/01/16 06:33:48;;;;;;;5.97;2.10;;;;;;;3.70;84.42;96565.31;5046112;28;20033;-80
2023/01/16 06:36:13;;;;;;;6.45;1.80;;;;;;;3.73;84.81;96562.94;5040364;28;20058;-80
2023/01/16 06:38:39;;;;;;;12.00;2.10;;;;;;;3.61;84.37;96561.59;5049328;28;20036;-80
2023/01/16 06:41:04;;;;;;;5.18;2.33;;;;;;;3.74;84.25;96563.72;5052413;28;20039;-80
2023/01/16 06:43:30;;;;;;;4.82;1.63;;;;;;;3.67;84.76;96558.72;5048752;28;20035;-80
2023/01/16 06:45:56;;;;;;;3.58;1.20;;;;;;;3.65;84.77;96539.72;5053181;28;20040;-80
2023/01/16 06:48:22;;;;;;;3.33;1.63;;;;;;;3.72;84.55;96548.19;5070259;28;20031;-80
2023/01/16 06:50:47;;;;;;;2.80;1.73;;;;;;;3.45;85.25;96534.38;5056991;28;20040;-80
2023/01/16 06:53:14;;;;;;;6.90;2.10;;;;;;;3.24;85.10;96545.94;5037382;28;20088;-80
2023/01/16 06:55:40;;;;;;;3.45;1.33;;;;;;;3.31;86.07;96556.22;5060889;28;20565;-79
2023/01/16 06:58:06;;;;;;;4.15;1.83;;;;;;;3.34;85.96;96547.81;5081513;28;20038;-80
2023/01/16 07:00:33;;;;;;;5.07;1.58;;;;;;;3.21;86.57;96545.66;5050389;28;20384;-81
2023/01/16 07:03:01;;;;;;;4.18;1.60;;;;;;;3.27;86.80;96540.16;5065560;28;20043;-80
2023/01/16 07:05:28;;;;;;;6.95;1.58;;;;;;;3.26;86.17;96543.03;5079262;28;20029;-79
2023/01/16 07:07:54;;;;;;;6.00;1.65;;;;;;;2.98;85.74;96523.97;5036144;28;20035;-79
2023/01/16 07:10:20;;;;;;;8.20;1.83;;;;;;;3.23;86.27;96518.00;5078190;28;20032;-79
2023/01/16 07:12:46;;;;;;;4.07;1.38;;;;;;;3.02;86.82;96511.06;5073602;28;20032;-79
2023/01/16 07:23:30;;;;;;;9.40;3.92;;;;;;;3.23;86.47;96504.81;5067620;28;20048;-79
2023/01/16 07:25:59;;;;;;;1.50;1.38;;;;;;;3.54;86.18;96518.84;5032041;28;20028;-79
2023/01/16 07:28:25;;;;;;;4.03;1.48;;;;;;;3.52;85.47;96491.94;5064412;28;20029;-79
2023/01/16 07:30:50;;;;;;;2.22;1.30;;;;;;;3.33;87.16;96499.56;5064983;28;20044;-79
2023/01/16 07:33:16;;;;;;;4.28;1.58;;;;;;;3.51;86.19;96498.28;5036770;28;20055;-80
2023/01/16 07:35:42;;;;;;;2.17;1.55;;;;;;;3.39;86.52;96495.88;5058641;28;20095;-80
2023/01/16 07:38:07;;;;;;;5.90;2.00;;;;;;;3.34;87.05;96490.59;5069531;28;20035;-80
2023/01/16 07:40:33;;;;;;;2.63;1.55;;;;;;;3.40;86.57;96492.22;5036913;28;20041;-80
2023/01/16 07:42:58;;;;;;;3.72;1.60;;;;;;;3.40;86.67;96472.97;5052999;28;20020;-80
2023/01/16 07:45:24;;;;;;;6.57;1.58;;;;;;;3.74;85.57;96485.41;5053215;28;20400;-80
2023/01/16 07:47:49;;;;;;;3.45;1.63;;;;;;;3.59;85.86;96474.03;5064269;28;20090;-80
2023/01/16 07:50:15;;;;;;;5.82;2.20;;;;;;;3.47;85.67;96461.09;5062396;28;20392;-80
2023/01/16 07:52:42;;;;;;;2.92;1.55;;;;;;;3.26;87.25;96474.50;5067020;28;20021;-80
2023/01/16 07:55:08;;;;;;;6.00;1.85;;;;;;;3.37;86.62;96465.56;5040211;28;20457;-80
2023/01/16 07:57:38;;;;;;;2.58;1.40;;;;;;;3.28;87.09;96448.66;5048010;28;20032;-80
2023/01/16 08:00:06;;;;;;;3.67;1.42;;;;;;;3.20;87.44;96452.63;5029522;28;20059;-80
2023/01/16 08:02:31;;;;;;;7.85;1.90;;;;;;;3.49;86.19;96437.91;5062732;28;20098;-80
2023/01/16 08:04:56;;;;;;;2.70;1.45;;;;;;;3.46;86.47;96451.59;5047162;28;20020;-80
2023/01/16 08:07:22;;;;;;;5.57;2.10;;;;;;;3.38;86.50;96449.50;5037539;28;20063;-80
2023/01/16 08:09:47;;;;;;;6.43;1.90;;;;;;;3.61;86.51;96443.72;5047138;28;20033;-80
2023/01/16 08:12:12;;;;;;;6.50;2.08;;;;;;;3.72;86.05;96445.31;5039573;28;20098;-79
2023/01/16 08:14:38;;;;;;;3.85;1.55;;;;;;;3.71;85.74;96419.97;5052246;28;20119;-80
2023/01/16 08:17:04;;;;;;;5.07;1.95;;;;;;;3.23;86.15;96436.28;5058055;28;20032;-81
2023/01/16 08:19:30;;;;;;;5.93;2.17;;;;;;;3.09;87.78;96415.94;5049666;28;20040;-81
2023/01/16 08:21:56;;;;;;;4.05;1.83;;;;;;;3.42;87.46;96412.84;5066248;28;20036;-81
2023/01/16 08:24:23;;;;;;;1.60;1.50;;;;;;;3.37;86.95;96407.56;5054626;28;20032;-81
2023/01/16 08:26:48;;;;;;;3.03;2.13;;;;;;;3.15;86.57;96402.53;5065560;28;20031;-80
2023/01/16 08:29:14;;;;;;;8.07;2.22;;;;;;;3.02;88.58;96395.13;5056680;28;20032;-80
2023/01/16 08:31:39;;;;;;;5.97;1.73;;;;;;;3.29;88.52;96400.19;5036429;28;20028;-81
2023/01/16 08:34:04;;;;;;;4.22;2.10;;;;;;;3.21;88.31;96392.78;5070678;28;20460;-81
2023/01/16 08:36:30;;;;;;;4.18;1.90;;;;;;;3.29;88.25;96390.44;5043899;28;20119;-80
2023/01/16 08:38:55;;;;;;;6.82;2.38;;;;;;;3.22;86.25;96383.81;5066757;28;20036;-80
2023/01/16 08:52:29;;;;;;;3.83;1.63;;;;;;;3.61;86.91;96367.22;5053799;28;20047;-81
2023/01/16 08:54:55;;;;;;;5.55;1.65;;;;;;;3.60;87.51;96367.50;5065172;28;20033;-81
2023/01/16 08:57:21;;;;;;;7.80;1.73;;;;;;;3.60;86.07;96360.38;5076827;28;20037;-81
2023/01/16 08:59:46;;;;;;;2.72;2.20;;;;;;;3.79;86.77;96348.22;5054619;28;20025;-81
2023/01/16 09:02:14;;;;;;;3.63;2.05;;;;;;;3.56;85.50;96314.47;5034094;28;20567;-81
2023/01/16 09:04:39;;;;;;;4.47;1.88;;;;;;;3.64;86.16;96336.91;5034027;28;20381;-81
2023/01/16 09:07:05;;;;;;;6.05;1.88;;;;;;;3.61;87.06;96324.25;5033960;28;20055;-80
2023/01/16 09:09:30;;;;;;;2.10;1.42;;;;;;;3.80;85.78;96338.44;5033163;28;20050;-80
2023/01/16 09:14:40;;;;;;;3.83;1.55;;;;;;;3.85;85.69;96319.19;5063342;28;20089;-81
2023/01/16 09:17:06;;;;;;;2.53;1.60;;;;;;;4.05;85.70;96312.00;5077054;28;20477;-81
2023/01/16 09:19:32;;;;;;;2.42;1.50;;;;;;;3.94;85.09;96301.75;5048656;28;20028;-81
2023/01/16 09:21:58;;;;;;;1.90;1.08;;;;;;;3.97;85.26;96294.09;5051652;28;20021;-81
2023/01/16 09:24:23;;;;;;;3.70;2.25;;;;;;;4.03;85.27;96305.41;5050352;28;20036;-81
2023/01/16 09:26:48;;;;;;;3.60;1.30;;;;;;;4.00;84.74;96296.19;5053603;28;20025;-81
2023/01/16 09:29:14;;;;;;;1.38;1.05;;;;;;;3.95;85.45;96287.50;5054571;28;20472;-81
2023/01/16 09:31:39;;;;;;;4.72;2.35;;;;;;;3.86;84.81;96268.00;5065615;28;20036;-81
2023/01/16 09:34:04;;;;;;;2.13;1.30;;;;;;;3.64;85.12;96270.97;5054826;28;20055;-80
2023/01/16 09:36:30;;;;;;;3.78;1.20;;;;;;;3.64;85.93;96273.63;5033068;28;20086;-80
2023/01/16 09:38:55;;;;;;;2.95;1.38;;;;;;;3.65;85.88;96270.69;5088113;28;20024;-80
2023/01/16 09:44:11;;;;;;;5.13;1.30;;;;;;;3.84;85.87;96246.38;5054054;28;20087;-81
2023/01/16 09:46:46;;;;;;;3.40;1.50;;;;;;;3.39;84.57;96252.53;5059543;28;20120;-80
2023/01/16 09:49:38;;;;;;;2.88;1.35;;;;;;;3.60;85.51;96231.16;5064284;28;20016;-81
2023/01/16 10:00:34;;;;;;;1.70;1.10;;;;;;;3.99;85.45;96204.91;5038520;28;20044;-80
2023/01/16 10:02:59;;;;;;;3.47;1.23;;;;;;;3.87;86.03;96198.38;5046479;28;20361;-81
2023/01/16 10:05:36;;;;;;;4.15;1.77;;;;;;;3.59;85.19;96195.28;5053120;28;20506;-80
2023/01/16 10:08:18;;;;;;;2.20;1.20;;;;;;;3.69;85.31;96197.88;5046179;28;20033;-80
2023/01/16 10:10:46;;;;;;;6.60;2.28;;;;;;;3.62;85.50;96186.06;5059000;28;20119;-80
2023/01/16 10:13:17;;;;;;;2.63;1.38;;;;;;;3.91;84.99;96181.69;5035111;28;20064;-81
2023/01/16 10:16:17;;;;;;;2.85;1.63;;;;;;;3.96;85.31;96181.69;5055530;28;20522;-80
2023/01/16 10:18:51;;;;;;;6.63;1.60;;;;;;;4.10;84.90;96163.41;5063404;28;20099;-80
2023/01/16 10:21:19;;;;;;;4.13;1.08;;;;;;;4.31;84.89;96154.28;5059613;28;20522;-81
2023/01/16 10:24:14;;;;;;;2.28;1.33;;;;;;;4.13;85.23;96139.88;5038264;28;20647;-81
2023/01/16 10:26:57;;;;;;;4.40;1.63;;;;;;;3.89;84.13;96112.59;5030761;28;20516;-80
2023/01/16 10:29:30;;;;;;;3.45;1.58;;;;;;;4.23;84.50;96131.94;5062255;28;20024;-81
2023/01/16 10:32:24;;;;;;;5.20;2.85;;;;;;;4.28;84.62;96128.47;5066976;28;21523;-81
2023/01/16 10:35:00;;;;;;;6.57;2.60;;;;;;;4.27;83.35;96118.94;5066752;28;20021;-80
2023/01/16 10:37:26;;;;;;;5.97;1.80;;;;;;;4.03;82.86;96100.38;5049765;28;20036;-80
2023/01/16 10:39:54;;;;;;;2.85;1.50;;;;;;;3.96;83.58;96094.63;5045103;28;20080;-81
2023/01/16 10:50:46;;;;;;;9.65;4.05;;;;;;;4.30;82.67;96099.94;5070985;28;20035;-81
2023/01/16 10:53:12;;;;;;;9.40;3.15;;;;;;;4.52;83.87;96077.28;5073697;28;20024;-81
2023/01/16 10:55:41;;;;;;;8.32;2.85;;;;;;;4.36;82.77;96072.41;5070143;28;20031;-81
2023/01/16 10:58:27;;;;;;;8.32;3.33;;;;;;;4.33;83.15;96057.13;5037234;28;20037;-81
2023/01/16 11:01:02;;;;;;;8.65;3.47;;;;;;;4.36;83.76;96041.53;5074312;28;20044;-81
2023/01/16 11:03:39;;;;;;;2.37;1.23;;;;;;;4.05;79.73;96049.97;5067973;28;20059;-81
2023/01/16 11:06:21;;;;;;;7.25;2.45;;;;;;;4.35;83.31;96036.50;5072557;28;20277;-81
2023/01/16 11:08:52;;;;;;;4.43;1.85;;;;;;;4.41;82.79;96030.16;5072424;28;20024;-82
2023/01/16 11:20:06;;;;;;;6.82;2.50;;;;;;;4.18;82.02;96010.53;5068322;28;20039;-80
2023/01/16 11:22:37;;;;;;;5.53;2.05;;;;;;;4.27;82.22;96006.22;5071659;28;20086;-80
2023/01/16 11:25:04;;;;;;;2.83;1.65;;;;;;;4.45;83.09;96002.09;5069911;28;20032;-80
2023/01/16 11:27:35;;;;;;;4.13;2.10;;;;;;;4.39;81.67;95987.38;5039574;28;20054;-80
2023/01/16 11:30:06;;;;;;;6.70;3.50;;;;;;;4.53;82.54;95980.38;5069958;28;20088;-80
2023/01/16 11:32:37;;;;;;;6.60;2.20;;;;;;;4.60;82.84;95978.19;5051012;28;20055;-81
2023/01/16 11:35:12;;;;;;;7.63;1.80;;;;;;;4.31;81.12;95956.28;5065296;28;20037;-80
2023/01/16 11:37:38;;;;;;;3.03;2.05;;;;;;;4.51;82.26;95961.38;5060999;28;20504;-81
2023/01/16 11:40:05;;;;;;;2.95;1.40;;;;;;;4.36;81.54;95950.97;5071183;28;20043;-81
2023/01/16 11:48:22;;;;;;;1.73;1.30;;;;;;;4.60;82.77;95935.94;5067051;28;19936;-80
2023/01/16 11:50:54;;;;;;;3.72;1.75;;;;;;;4.60;80.39;95938.56;5060050;28;20124;-80
2023/01/16 11:53:20;;;;;;;3.03;1.42;;;;;;;4.65;81.81;95937.72;5064413;28;20094;-80
2023/01/16 11:56:10;;;;;;;2.40;1.40;;;;;;;4.53;80.38;95944.19;5066338;28;20782;-80
2023/01/16 11:58:54;;;;;;;1.45;1.00;;;;;;;4.65;82.15;95943.00;5073327;28;20387;-80
2023/01/16 12:02:15;;;;;;;2.42;1.52;;;;;;;4.67;82.04;95931.09;5067808;28;20039;-81
2023/01/16 12:04:22;;;;;;;4.90;1.25;;;;;;;4.63;82.65;95929.31;5062968;28;20056;-81
2023/01/16 12:07:14;;;;;;;4.50;1.38;;;;;;;4.32;80.65;95932.28;5054974;28;20029;-81
2023/01/16 12:10:02;;;;;;;5.57;1.42;;;;;;;4.17;81.19;95911.28;5066676;28;20032;-80
2023/01/16 12:16:07;;;;;;;6.38;1.48;;;;;;;4.15;83.43;95900.22;5055579;28;20409;-81
2023/01/16 12:19:11;;;;;;;3.20;1.55;;;;;;;4.50;84.32;95905.13;5050230;28;20416;-81
2023/01/16 12:22:05;;;;;;;3.08;1.63;;;;;;;4.29;83.56;95898.50;5068976;28;20058;-81
2023/01/16 12:24:45;;;;;;;2.30;1.30;;;;;;;4.35;83.85;95893.94;5081206;28;20119;-81
2023/01/16 12:27:35;;;;;;;4.13;1.65;;;;;;;4.44;82.82;95885.13;5064706;28;20498;-81
2023/01/16 12:30:16;;;;;;;3.10;1.40;;;;;;;4.53;83.94;95880.81;5079802;28;20209;-81
2023/01/16 12:33:13;;;;;;;3.65;1.50;;;;;;;4.27;82.13;95866.31;5048627;28;20142;-80
2023/01/16 12:36:15;;;;;;;5.90;2.42;;;;;;;4.59;83.13;95870.94;5069402;28;20036;-80
2023/01/16 12:38:46;;;;;;;3.90;1.58;;;;;;;4.50;83.43;95851.50;5067582;28;20035;-80
2023/01/16 12:44:15;;;;;;;1.70;1.58;;;;;;;4.24;83.62;95848.41;5067967;28;20206;-81
2023/01/16 12:47:22;;;;;;;4.13;1.40;;;;;;;4.04;82.32;95848.63;5055956;28;20527;-81
2023/01/16 12:50:11;;;;;;;4.03;1.33;;;;;;;4.33;82.92;95838.00;5050630;28;20116;-80
2023/01/16 12:52:51;;;;;;;1.50;1.33;;;;;;;3.94;82.54;95843.44;5062173;28;20490;-80
2023/01/16 12:55:35;;;;;;;1.45;1.20;;;;;;;4.12;84.24;95836.66;5056443;28;20035;-80
2023/01/16 12:58:21;;;;;;;4.43;1.77;;;;;;;4.15;83.21;95815.00;5059653;28;20031;-81
2023/01/16 13:01:26;;;;;;;2.60;1.45;;;;;;;4.02;83.42;95815.69;5043377;28;20048;-81
2023/01/16 13:04:02;;;;;;;2.63;1.13;;;;;;;4.28;84.58;95822.25;5022112;28;20040;-81
2023/01/16 13:06:30;;;;;;;2.70;1.20;;;;;;;4.16;84.34;95825.28;5063964;28;20047;-81
2023/01/16 13:09:00;;;;;;;1.48;1.13;;;;;;;4.05;84.34;95817.75;5083184;28;20024;-81